sensor_id;sensor_type;location;lat;lon;timestamp;P1;durP1;ratioP1;P2;durP2;ratioP2
20910;SDS011;10615;42.702;23.314;2024-01-11T00:00:46;52.30;;;26.33;;
20910;SDS011;10615;42.702;23.314;2024-01-11T00:01:47;50.70;;;25.42;;
20910;SDS011;10615;42.702;23.314;2024-01-11T00:02:48;50.45;;;25.77;;
20910;SDS011;10615;42.702;23.314;2024-01-11T00:03:49;45.63;;;24.55;;
20910;SDS011;10615;42.702;23.314;2024-01-11T00:04:50;47.03;;;24.27;;
20910;SDS011;10615;42.702;23.314;2024-01-11T00:05:51;44.17;;;22.90;;
20910;SDS011;10615;42.702;23.314;2024-01-11T00:06:51;45.45;;;24.25;;
20910;SDS011;10615;42.702;23.314;2024-01-11T00:07:52;45.60;;;23.58;;
20910;SDS011;10615;42.702;23.314;2024-01-11T00:08:53;47.92;;;24.75;;
20910;SDS011;10615;42.702;23.314;2024-01-11T00:09:54;48.53;;;25.35;;
20910;SDS011;10615;42.702;23.314;2024-01-11T00:10:54;48.90;;;25.58;;
20910;SDS011;10615;42.702;23.314;2024-01-11T00:11:55;49.38;;;24.17;;
20910;SDS011;10615;42.702;23.314;2024-01-11T00:12:56;45.38;;;25.15;;
20910;SDS011;10615;42.702;23.314;2024-01-11T00:13:56;47.38;;;23.15;;
20910;SDS011;10615;42.702;23.314;2024-01-11T00:14:57;47.35;;;23.85;;
20910;SDS011;10615;42.702;23.314;2024-01-11T00:15:59;43.13;;;22.90;;
20910;SDS011;10615;42.702;23.314;2024-01-11T00:16:59;45.03;;;22.38;;
20910;SDS011;10615;42.702;23.314;2024-01-11T00:18:00;44.65;;;22.55;;
20910;SDS011;10615;42.702;23.314;2024-01-11T00:19:20;44.50;;;23.02;;
20910;SDS011;10615;42.702;23.314;2024-01-11T00:20:20;41.97;;;22.00;;
20910;SDS011;10615;42.702;23.314;2024-01-11T00:21:21;43.53;;;22.98;;
20910;SDS011;10615;42.702;23.314;2024-01-11T00:22:22;46.60;;;24.20;;
20910;SDS011;10615;42.702;23.314;2024-01-11T00:23:23;47.65;;;24.63;;
20910;SDS011;10615;42.702;23.314;2024-01-11T00:24:23;50.25;;;24.88;;
20910;SDS011;10615;42.702;23.314;2024-01-11T00:25:24;54.00;;;28.13;;
20910;SDS011;10615;42.702;23.314;2024-01-11T00:26:25;54.15;;;29.35;;
20910;SDS011;10615;42.702;23.314;2024-01-11T00:27:26;56.42;;;29.10;;
20910;SDS011;10615;42.702;23.314;2024-01-11T00:28:26;60.33;;;29.00;;
20910;SDS011;10615;42.702;23.314;2024-01-11T00:29:27;52.50;;;28.88;;
20910;SDS011;10615;42.702;23.314;2024-01-11T00:30:28;54.72;;;27.92;;
20910;SDS011;10615;42.702;23.314;2024-01-11T00:31:29;56.63;;;27.15;;
20910;SDS011;10615;42.702;23.314;2024-01-11T00:32:30;54.25;;;28.35;;
20910;SDS011;10615;42.702;23.314;2024-01-11T00:33:30;60.65;;;28.10;;
20910;SDS011;10615;42.702;23.314;2024-01-11T00:34:32;61.90;;;29.08;;
20910;SDS011;10615;42.702;23.314;2024-01-11T00:35:32;58.13;;;29.20;;
20910;SDS011;10615;42.702;23.314;2024-01-11T00:36:33;53.40;;;27.52;;
20910;SDS011;10615;42.702;23.314;2024-01-11T00:37:34;54.83;;;28.30;;
20910;SDS011;10615;42.702;23.314;2024-01-11T00:38:35;60.03;;;29.08;;
20910;SDS011;10615;42.702;23.314;2024-01-11T00:39:36;55.42;;;28.05;;
20910;SDS011;10615;42.702;23.314;2024-01-11T00:40:37;57.17;;;28.85;;
20910;SDS011;10615;42.702;23.314;2024-01-11T00:41:37;55.63;;;29.70;;
20910;SDS011;10615;42.702;23.314;2024-01-11T00:42:38;58.47;;;30.48;;
20910;SDS011;10615;42.702;23.314;2024-01-11T00:43:39;56.53;;;30.55;;
20910;SDS011;10615;42.702;23.314;2024-01-11T00:44:39;55.33;;;30.45;;
20910;SDS011;10615;42.702;23.314;2024-01-11T00:45:40;60.10;;;31.38;;
20910;SDS011;10615;42.702;23.314;2024-01-11T00:46:41;62.72;;;31.58;;
20910;SDS011;10615;42.702;23.314;2024-01-11T00:47:42;55.40;;;30.08;;
20910;SDS011;10615;42.702;23.314;2024-01-11T00:48:42;54.97;;;28.33;;
20910;SDS011;10615;42.702;23.314;2024-01-11T00:49:43;54.63;;;27.40;;
20910;SDS011;10615;42.702;23.314;2024-01-11T00:50:44;50.35;;;28.10;;
20910;SDS011;10615;42.702;23.314;2024-01-11T00:51:45;52.30;;;26.95;;
20910;SDS011;10615;42.702;23.314;2024-01-11T00:52:45;55.67;;;26.85;;
20910;SDS011;10615;42.702;23.314;2024-01-11T00:53:46;52.80;;;24.42;;
20910;SDS011;10615;42.702;23.314;2024-01-11T00:54:47;50.80;;;25.50;;
20910;SDS011;10615;42.702;23.314;2024-01-11T00:55:48;53.22;;;25.50;;
20910;SDS011;10615;42.702;23.314;2024-01-11T00:56:48;46.90;;;25.27;;
20910;SDS011;10615;42.702;23.314;2024-01-11T00:57:49;45.45;;;24.27;;
20910;SDS011;10615;42.702;23.314;2024-01-11T00:58:50;44.67;;;23.75;;
20910;SDS011;10615;42.702;23.314;2024-01-11T00:59:51;45.38;;;23.05;;
20910;SDS011;10615;42.702;23.314;2024-01-11T01:00:53;43.17;;;23.58;;
20910;SDS011;10615;42.702;23.314;2024-01-11T01:01:54;42.35;;;22.05;;
20910;SDS011;10615;42.702;23.314;2024-01-11T01:02:54;41.47;;;22.10;;
20910;SDS011;10615;42.702;23.314;2024-01-11T01:03:55;43.53;;;22.63;;
20910;SDS011;10615;42.702;23.314;2024-01-11T01:04:56;43.30;;;21.77;;
20910;SDS011;10615;42.702;23.314;2024-01-11T01:05:57;45.33;;;22.13;;
20910;SDS011;10615;42.702;23.314;2024-01-11T01:06:58;44.13;;;22.48;;
20910;SDS011;10615;42.702;23.314;2024-01-11T01:07:58;45.15;;;22.67;;
20910;SDS011;10615;42.702;23.314;2024-01-11T01:08:59;42.17;;;21.85;;
20910;SDS011;10615;42.702;23.314;2024-01-11T01:10:00;38.10;;;21.30;;
20910;SDS011;10615;42.702;23.314;2024-01-11T01:11:01;40.10;;;21.23;;
20910;SDS011;10615;42.702;23.314;2024-01-11T01:12:02;46.38;;;22.73;;
20910;SDS011;10615;42.702;23.314;2024-01-11T01:13:04;42.50;;;22.05;;
20910;SDS011;10615;42.702;23.314;2024-01-11T01:14:04;41.47;;;20.75;;
20910;SDS011;10615;42.702;23.314;2024-01-11T01:15:05;39.80;;;20.48;;
20910;SDS011;10615;42.702;23.314;2024-01-11T01:16:07;38.80;;;20.90;;
20910;SDS011;10615;42.702;23.314;2024-01-11T01:17:07;41.50;;;21.00;;
20910;SDS011;10615;42.702;23.314;2024-01-11T01:18:08;39.00;;;21.65;;
20910;SDS011;10615;42.702;23.314;2024-01-11T01:19:09;39.58;;;20.58;;
20910;SDS011;10615;42.702;23.314;2024-01-11T01:20:10;38.13;;;20.15;;
20910;SDS011;10615;42.702;23.314;2024-01-11T01:21:11;40.17;;;20.42;;
20910;SDS011;10615;42.702;23.314;2024-01-11T01:22:12;40.13;;;20.83;;
20910;SDS011;10615;42.702;23.314;2024-01-11T01:23:13;40.47;;;20.95;;
20910;SDS011;10615;42.702;23.314;2024-01-11T01:24:14;34.00;;;17.90;;
20910;SDS011;10615;42.702;23.314;2024-01-11T01:25:14;33.67;;;19.00;;
20910;SDS011;10615;42.702;23.314;2024-01-11T01:26:15;35.92;;;19.73;;
20910;SDS011;10615;42.702;23.314;2024-01-11T01:27:16;35.60;;;19.30;;
20910;SDS011;10615;42.702;23.314;2024-01-11T01:28:17;37.95;;;19.83;;
20910;SDS011;10615;42.702;23.314;2024-01-11T01:29:18;31.60;;;17.75;;
20910;SDS011;10615;42.702;23.314;2024-01-11T01:30:19;29.63;;;17.10;;
20910;SDS011;10615;42.702;23.314;2024-01-11T01:31:21;32.17;;;16.13;;
20910;SDS011;10615;42.702;23.314;2024-01-11T01:32:21;38.88;;;19.85;;
20910;SDS011;10615;42.702;23.314;2024-01-11T01:33:22;32.10;;;16.50;;
20910;SDS011;10615;42.702;23.314;2024-01-11T01:34:23;29.77;;;16.38;;
20910;SDS011;10615;42.702;23.314;2024-01-11T01:35:24;28.02;;;15.57;;
20910;SDS011;10615;42.702;23.314;2024-01-11T01:36:24;29.98;;;15.15;;
20910;SDS011;10615;42.702;23.314;2024-01-11T01:37:25;30.25;;;15.48;;
20910;SDS011;10615;42.702;23.314;2024-01-11T01:38:26;27.60;;;15.85;;
20910;SDS011;10615;42.702;23.314;2024-01-11T01:39:27;30.17;;;16.40;;
20910;SDS011;10615;42.702;23.314;2024-01-11T01:40:29;30.55;;;16.65;;
20910;SDS011;10615;42.702;23.314;2024-01-11T01:41:31;33.65;;;18.23;;
20910;SDS011;10615;42.702;23.314;2024-01-11T01:42:31;35.05;;;18.73;;
20910;SDS011;10615;42.702;23.314;2024-01-11T01:43:32;36.22;;;19.08;;
20910;SDS011;10615;42.702;23.314;2024-01-11T01:44:33;38.75;;;20.75;;
20910;SDS011;10615;42.702;23.314;2024-01-11T01:45:34;37.08;;;19.85;;
20910;SDS011;10615;42.702;23.314;2024-01-11T01:46:35;39.90;;;20.25;;
20910;SDS011;10615;42.702;23.314;2024-01-11T01:47:36;36.47;;;18.65;;
20910;SDS011;10615;42.702;23.314;2024-01-11T01:48:40;34.72;;;18.50;;
20910;SDS011;10615;42.702;23.314;2024-01-11T01:49:42;33.47;;;17.48;;
20910;SDS011;10615;42.702;23.314;2024-01-11T01:50:43;34.70;;;17.48;;
20910;SDS011;10615;42.702;23.314;2024-01-11T01:51:50;32.08;;;15.63;;
20910;SDS011;10615;42.702;23.314;2024-01-11T01:52:53;28.02;;;15.55;;
20910;SDS011;10615;42.702;23.314;2024-01-11T01:53:55;26.30;;;14.77;;
20910;SDS011;10615;42.702;23.314;2024-01-11T01:54:57;34.38;;;18.17;;
20910;SDS011;10615;42.702;23.314;2024-01-11T01:55:59;35.03;;;18.42;;
20910;SDS011;10615;42.702;23.314;2024-01-11T01:57:00;34.30;;;19.38;;
20910;SDS011;10615;42.702;23.314;2024-01-11T01:58:02;36.88;;;17.83;;
20910;SDS011;10615;42.702;23.314;2024-01-11T01:59:03;30.02;;;16.13;;
20910;SDS011;10615;42.702;23.314;2024-01-11T02:00:05;29.10;;;15.77;;
20910;SDS011;10615;42.702;23.314;2024-01-11T02:01:06;29.83;;;15.63;;
20910;SDS011;10615;42.702;23.314;2024-01-11T02:02:07;28.02;;;15.70;;
20910;SDS011;10615;42.702;23.314;2024-01-11T02:03:09;28.52;;;14.98;;
20910;SDS011;10615;42.702;23.314;2024-01-11T02:04:10;29.55;;;15.10;;
20910;SDS011;10615;42.702;23.314;2024-01-11T02:05:12;27.35;;;14.68;;
20910;SDS011;10615;42.702;23.314;2024-01-11T02:06:14;31.98;;;16.15;;
20910;SDS011;10615;42.702;23.314;2024-01-11T02:07:15;28.80;;;15.13;;
20910;SDS011;10615;42.702;23.314;2024-01-11T02:08:16;29.35;;;15.68;;
20910;SDS011;10615;42.702;23.314;2024-01-11T02:09:18;31.02;;;16.30;;
20910;SDS011;10615;42.702;23.314;2024-01-11T02:10:19;31.92;;;15.70;;
20910;SDS011;10615;42.702;23.314;2024-01-11T02:11:20;29.90;;;16.10;;
20910;SDS011;10615;42.702;23.314;2024-01-11T02:12:21;29.38;;;16.25;;
20910;SDS011;10615;42.702;23.314;2024-01-11T02:13:23;30.20;;;16.92;;
20910;SDS011;10615;42.702;23.314;2024-01-11T02:14:24;30.98;;;15.52;;
20910;SDS011;10615;42.702;23.314;2024-01-11T02:15:26;33.83;;;17.30;;
20910;SDS011;10615;42.702;23.314;2024-01-11T02:16:27;32.08;;;16.52;;
20910;SDS011;10615;42.702;23.314;2024-01-11T02:17:28;33.95;;;16.70;;
20910;SDS011;10615;42.702;23.314;2024-01-11T02:18:28;36.05;;;16.83;;
20910;SDS011;10615;42.702;23.314;2024-01-11T02:19:29;31.60;;;16.75;;
20910;SDS011;10615;42.702;23.314;2024-01-11T02:20:31;29.50;;;16.63;;
20910;SDS011;10615;42.702;23.314;2024-01-11T02:21:32;30.90;;;16.92;;
20910;SDS011;10615;42.702;23.314;2024-01-11T02:22:38;33.40;;;18.40;;
20910;SDS011;10615;42.702;23.314;2024-01-11T02:23:42;33.75;;;18.10;;
20910;SDS011;10615;42.702;23.314;2024-01-11T02:24:47;37.88;;;19.55;;
20910;SDS011;10615;42.702;23.314;2024-01-11T02:25:48;34.42;;;17.33;;
20910;SDS011;10615;42.702;23.314;2024-01-11T02:26:58;34.95;;;18.65;;
20910;SDS011;10615;42.702;23.314;2024-01-11T02:28:00;34.13;;;18.05;;
20910;SDS011;10615;42.702;23.314;2024-01-11T02:29:01;34.53;;;18.15;;
20910;SDS011;10615;42.702;23.314;2024-01-11T02:30:02;40.92;;;20.70;;
20910;SDS011;10615;42.702;23.314;2024-01-11T02:31:03;37.08;;;19.45;;
20910;SDS011;10615;42.702;23.314;2024-01-11T02:32:04;36.17;;;18.80;;
20910;SDS011;10615;42.702;23.314;2024-01-11T02:33:06;36.25;;;20.05;;
20910;SDS011;10615;42.702;23.314;2024-01-11T02:34:07;37.78;;;20.15;;
20910;SDS011;10615;42.702;23.314;2024-01-11T02:35:08;36.42;;;20.20;;
20910;SDS011;10615;42.702;23.314;2024-01-11T02:36:09;39.92;;;20.38;;
20910;SDS011;10615;42.702;23.314;2024-01-11T02:37:10;34.88;;;18.58;;
20910;SDS011;10615;42.702;23.314;2024-01-11T02:38:11;41.78;;;21.20;;
20910;SDS011;10615;42.702;23.314;2024-01-11T02:39:12;38.38;;;20.70;;
20910;SDS011;10615;42.702;23.314;2024-01-11T02:40:16;37.33;;;20.73;;
20910;SDS011;10615;42.702;23.314;2024-01-11T02:41:19;40.92;;;20.65;;
20910;SDS011;10615;42.702;23.314;2024-01-11T02:42:21;38.97;;;19.88;;
20910;SDS011;10615;42.702;23.314;2024-01-11T02:43:22;35.15;;;19.85;;
20910;SDS011;10615;42.702;23.314;2024-01-11T02:44:23;39.22;;;20.85;;
20910;SDS011;10615;42.702;23.314;2024-01-11T02:45:23;40.22;;;20.95;;
20910;SDS011;10615;42.702;23.314;2024-01-11T02:46:25;41.55;;;21.17;;
20910;SDS011;10615;42.702;23.314;2024-01-11T02:47:25;40.35;;;21.00;;
20910;SDS011;10615;42.702;23.314;2024-01-11T02:48:29;40.13;;;21.13;;
20910;SDS011;10615;42.702;23.314;2024-01-11T02:49:30;37.42;;;20.33;;
20910;SDS011;10615;42.702;23.314;2024-01-11T02:50:30;36.75;;;20.55;;
20910;SDS011;10615;42.702;23.314;2024-01-11T02:51:32;35.00;;;18.92;;
20910;SDS011;10615;42.702;23.314;2024-01-11T02:52:33;36.55;;;20.35;;
20910;SDS011;10615;42.702;23.314;2024-01-11T02:53:34;35.05;;;19.73;;
20910;SDS011;10615;42.702;23.314;2024-01-11T02:54:35;35.15;;;19.38;;
20910;SDS011;10615;42.702;23.314;2024-01-11T02:55:36;36.47;;;20.30;;
20910;SDS011;10615;42.702;23.314;2024-01-11T02:56:36;38.63;;;21.48;;
20910;SDS011;10615;42.702;23.314;2024-01-11T02:57:37;37.90;;;19.80;;
20910;SDS011;10615;42.702;23.314;2024-01-11T02:58:38;35.63;;;19.42;;
20910;SDS011;10615;42.702;23.314;2024-01-11T02:59:39;39.60;;;19.42;;
20910;SDS011;10615;42.702;23.314;2024-01-11T03:00:40;41.40;;;20.00;;
20910;SDS011;10615;42.702;23.314;2024-01-11T03:01:41;39.55;;;20.38;;
20910;SDS011;10615;42.702;23.314;2024-01-11T03:02:42;38.85;;;20.00;;
20910;SDS011;10615;42.702;23.314;2024-01-11T03:03:42;38.10;;;20.20;;
20910;SDS011;10615;42.702;23.314;2024-01-11T03:04:43;37.72;;;19.98;;
20910;SDS011;10615;42.702;23.314;2024-01-11T03:05:44;41.38;;;18.67;;
20910;SDS011;10615;42.702;23.314;2024-01-11T03:06:45;36.03;;;18.50;;
20910;SDS011;10615;42.702;23.314;2024-01-11T03:07:45;39.28;;;20.35;;
20910;SDS011;10615;42.702;23.314;2024-01-11T03:08:47;40.70;;;20.20;;
20910;SDS011;10615;42.702;23.314;2024-01-11T03:09:50;40.83;;;20.50;;
20910;SDS011;10615;42.702;23.314;2024-01-11T03:10:51;39.65;;;19.23;;
20910;SDS011;10615;42.702;23.314;2024-01-11T03:11:52;36.35;;;19.23;;
20910;SDS011;10615;42.702;23.314;2024-01-11T03:12:53;37.03;;;19.67;;
20910;SDS011;10615;42.702;23.314;2024-01-11T03:13:54;38.40;;;20.08;;
20910;SDS011;10615;42.702;23.314;2024-01-11T03:14:55;44.03;;;19.95;;
20910;SDS011;10615;42.702;23.314;2024-01-11T03:15:56;38.10;;;18.77;;
20910;SDS011;10615;42.702;23.314;2024-01-11T03:16:57;38.97;;;20.65;;
20910;SDS011;10615;42.702;23.314;2024-01-11T03:17:58;39.00;;;19.85;;
20910;SDS011;10615;42.702;23.314;2024-01-11T03:18:59;37.13;;;19.70;;
20910;SDS011;10615;42.702;23.314;2024-01-11T03:20:01;37.03;;;19.52;;
20910;SDS011;10615;42.702;23.314;2024-01-11T03:21:03;36.10;;;18.40;;
20910;SDS011;10615;42.702;23.314;2024-01-11T03:22:04;39.30;;;18.73;;
20910;SDS011;10615;42.702;23.314;2024-01-11T03:23:06;34.38;;;19.17;;
20910;SDS011;10615;42.702;23.314;2024-01-11T03:24:07;38.78;;;19.75;;
20910;SDS011;10615;42.702;23.314;2024-01-11T03:25:08;39.08;;;19.05;;
20910;SDS011;10615;42.702;23.314;2024-01-11T03:26:14;36.20;;;19.10;;
20910;SDS011;10615;42.702;23.314;2024-01-11T03:27:15;39.25;;;19.77;;
20910;SDS011;10615;42.702;23.314;2024-01-11T03:28:16;38.47;;;19.02;;
20910;SDS011;10615;42.702;23.314;2024-01-11T03:29:17;37.60;;;19.33;;
20910;SDS011;10615;42.702;23.314;2024-01-11T03:30:18;36.38;;;19.38;;
20910;SDS011;10615;42.702;23.314;2024-01-11T03:31:19;32.15;;;18.05;;
20910;SDS011;10615;42.702;23.314;2024-01-11T03:32:19;33.72;;;17.73;;
20910;SDS011;10615;42.702;23.314;2024-01-11T03:33:20;30.23;;;16.20;;
20910;SDS011;10615;42.702;23.314;2024-01-11T03:34:21;31.35;;;16.73;;
20910;SDS011;10615;42.702;23.314;2024-01-11T03:35:21;31.17;;;15.75;;
20910;SDS011;10615;42.702;23.314;2024-01-11T03:36:23;28.98;;;15.68;;
20910;SDS011;10615;42.702;23.314;2024-01-11T03:37:25;34.90;;;17.02;;
20910;SDS011;10615;42.702;23.314;2024-01-11T03:38:25;29.30;;;15.60;;
20910;SDS011;10615;42.702;23.314;2024-01-11T03:39:26;32.65;;;15.85;;
20910;SDS011;10615;42.702;23.314;2024-01-11T03:40:27;27.85;;;15.68;;
20910;SDS011;10615;42.702;23.314;2024-01-11T03:41:27;31.75;;;16.80;;
20910;SDS011;10615;42.702;23.314;2024-01-11T03:42:28;30.60;;;16.08;;
20910;SDS011;10615;42.702;23.314;2024-01-11T03:43:29;30.13;;;15.75;;
20910;SDS011;10615;42.702;23.314;2024-01-11T03:44:30;29.55;;;16.13;;
20910;SDS011;10615;42.702;23.314;2024-01-11T03:45:31;30.63;;;16.33;;
20910;SDS011;10615;42.702;23.314;2024-01-11T03:46:32;32.35;;;15.77;;
20910;SDS011;10615;42.702;23.314;2024-01-11T03:47:32;32.33;;;16.45;;
20910;SDS011;10615;42.702;23.314;2024-01-11T03:48:33;29.00;;;16.70;;
20910;SDS011;10615;42.702;23.314;2024-01-11T03:49:37;36.00;;;17.15;;
20910;SDS011;10615;42.702;23.314;2024-01-11T03:50:37;33.47;;;17.27;;
20910;SDS011;10615;42.702;23.314;2024-01-11T03:51:38;30.75;;;16.70;;
20910;SDS011;10615;42.702;23.314;2024-01-11T03:52:39;29.95;;;15.57;;
20910;SDS011;10615;42.702;23.314;2024-01-11T03:53:40;30.77;;;16.42;;
20910;SDS011;10615;42.702;23.314;2024-01-11T03:54:41;28.67;;;15.27;;
20910;SDS011;10615;42.702;23.314;2024-01-11T03:55:41;27.15;;;15.50;;
20910;SDS011;10615;42.702;23.314;2024-01-11T03:56:42;33.97;;;15.32;;
20910;SDS011;10615;42.702;23.314;2024-01-11T03:57:43;28.50;;;15.50;;
20910;SDS011;10615;42.702;23.314;2024-01-11T03:58:44;29.40;;;15.02;;
20910;SDS011;10615;42.702;23.314;2024-01-11T03:59:45;28.67;;;15.73;;
20910;SDS011;10615;42.702;23.314;2024-01-11T04:00:46;35.20;;;15.77;;
20910;SDS011;10615;42.702;23.314;2024-01-11T04:01:46;33.35;;;15.98;;
20910;SDS011;10615;42.702;23.314;2024-01-11T04:02:48;30.08;;;15.88;;
20910;SDS011;10615;42.702;23.314;2024-01-11T04:03:51;28.63;;;14.98;;
20910;SDS011;10615;42.702;23.314;2024-01-11T04:04:51;28.65;;;15.48;;
20910;SDS011;10615;42.702;23.314;2024-01-11T04:05:54;26.75;;;15.30;;
20910;SDS011;10615;42.702;23.314;2024-01-11T04:06:55;28.95;;;15.10;;
20910;SDS011;10615;42.702;23.314;2024-01-11T04:07:56;27.02;;;15.02;;
20910;SDS011;10615;42.702;23.314;2024-01-11T04:08:58;26.45;;;15.32;;
20910;SDS011;10615;42.702;23.314;2024-01-11T04:09:59;28.15;;;15.07;;
20910;SDS011;10615;42.702;23.314;2024-01-11T04:11:03;26.50;;;14.88;;
20910;SDS011;10615;42.702;23.314;2024-01-11T04:12:06;33.50;;;15.77;;
20910;SDS011;10615;42.702;23.314;2024-01-11T04:13:07;25.30;;;14.73;;
20910;SDS011;10615;42.702;23.314;2024-01-11T04:14:08;29.25;;;15.57;;
20910;SDS011;10615;42.702;23.314;2024-01-11T04:15:13;26.23;;;14.00;;
20910;SDS011;10615;42.702;23.314;2024-01-11T04:16:14;27.90;;;15.40;;
20910;SDS011;10615;42.702;23.314;2024-01-11T04:17:14;26.85;;;14.43;;
20910;SDS011;10615;42.702;23.314;2024-01-11T04:18:15;26.40;;;14.48;;
20910;SDS011;10615;42.702;23.314;2024-01-11T04:19:16;32.30;;;14.65;;
20910;SDS011;10615;42.702;23.314;2024-01-11T04:20:17;24.48;;;13.45;;
20910;SDS011;10615;42.702;23.314;2024-01-11T04:21:24;31.02;;;15.18;;
20910;SDS011;10615;42.702;23.314;2024-01-11T04:22:28;27.85;;;14.13;;
20910;SDS011;10615;42.702;23.314;2024-01-11T04:23:30;25.40;;;13.73;;
20910;SDS011;10615;42.702;23.314;2024-01-11T04:24:31;27.90;;;14.18;;
20910;SDS011;10615;42.702;23.314;2024-01-11T04:25:31;27.15;;;13.65;;
20910;SDS011;10615;42.702;23.314;2024-01-11T04:26:32;28.05;;;14.90;;
20910;SDS011;10615;42.702;23.314;2024-01-11T04:27:33;25.75;;;14.05;;
20910;SDS011;10615;42.702;23.314;2024-01-11T04:28:34;27.08;;;14.52;;
20910;SDS011;10615;42.702;23.314;2024-01-11T04:29:37;29.75;;;14.90;;
20910;SDS011;10615;42.702;23.314;2024-01-11T04:30:38;25.15;;;14.40;;
20910;SDS011;10615;42.702;23.314;2024-01-11T04:31:38;27.98;;;15.23;;
20910;SDS011;10615;42.702;23.314;2024-01-11T04:32:39;25.75;;;13.32;;
20910;SDS011;10615;42.702;23.314;2024-01-11T04:33:42;24.65;;;13.88;;
20910;SDS011;10615;42.702;23.314;2024-01-11T04:34:44;24.23;;;13.50;;
20910;SDS011;10615;42.702;23.314;2024-01-11T04:35:44;25.38;;;13.95;;
20910;SDS011;10615;42.702;23.314;2024-01-11T04:36:45;26.40;;;14.10;;
20910;SDS011;10615;42.702;23.314;2024-01-11T04:37:46;22.92;;;13.45;;
20910;SDS011;10615;42.702;23.314;2024-01-11T04:38:47;26.27;;;13.73;;
20910;SDS011;10615;42.702;23.314;2024-01-11T04:39:47;23.38;;;13.60;;
20910;SDS011;10615;42.702;23.314;2024-01-11T04:40:48;23.60;;;13.65;;
20910;SDS011;10615;42.702;23.314;2024-01-11T04:41:49;25.90;;;14.27;;
20910;SDS011;10615;42.702;23.314;2024-01-11T04:42:49;27.70;;;14.43;;
20910;SDS011;10615;42.702;23.314;2024-01-11T04:43:50;31.52;;;14.40;;
20910;SDS011;10615;42.702;23.314;2024-01-11T04:44:51;26.27;;;13.75;;
20910;SDS011;10615;42.702;23.314;2024-01-11T04:45:52;26.95;;;14.15;;
20910;SDS011;10615;42.702;23.314;2024-01-11T04:46:53;27.38;;;14.60;;
20910;SDS011;10615;42.702;23.314;2024-01-11T04:47:54;25.67;;;14.38;;
20910;SDS011;10615;42.702;23.314;2024-01-11T04:48:54;23.67;;;14.30;;
20910;SDS011;10615;42.702;23.314;2024-01-11T04:49:55;27.73;;;14.10;;
20910;SDS011;10615;42.702;23.314;2024-01-11T04:50:56;25.95;;;14.32;;
20910;SDS011;10615;42.702;23.314;2024-01-11T04:51:57;25.38;;;13.55;;
20910;SDS011;10615;42.702;23.314;2024-01-11T04:52:59;28.23;;;15.00;;
20910;SDS011;10615;42.702;23.314;2024-01-11T04:54:00;27.33;;;13.82;;
20910;SDS011;10615;42.702;23.314;2024-01-11T04:55:01;26.05;;;14.35;;
20910;SDS011;10615;42.702;23.314;2024-01-11T04:56:02;30.45;;;14.68;;
20910;SDS011;10615;42.702;23.314;2024-01-11T04:57:03;26.85;;;14.45;;
20910;SDS011;10615;42.702;23.314;2024-01-11T04:58:04;25.20;;;14.15;;
20910;SDS011;10615;42.702;23.314;2024-01-11T04:59:05;25.40;;;14.77;;
20910;SDS011;10615;42.702;23.314;2024-01-11T05:00:05;24.92;;;14.23;;
20910;SDS011;10615;42.702;23.314;2024-01-11T05:01:07;27.98;;;14.80;;
20910;SDS011;10615;42.702;23.314;2024-01-11T05:02:14;26.48;;;15.10;;
20910;SDS011;10615;42.702;23.314;2024-01-11T05:03:15;26.58;;;15.27;;
20910;SDS011;10615;42.702;23.314;2024-01-11T05:04:16;36.00;;;17.42;;
20910;SDS011;10615;42.702;23.314;2024-01-11T05:05:16;38.95;;;18.35;;
20910;SDS011;10615;42.702;23.314;2024-01-11T05:06:18;38.63;;;18.80;;
20910;SDS011;10615;42.702;23.314;2024-01-11T05:07:19;39.72;;;19.40;;
20910;SDS011;10615;42.702;23.314;2024-01-11T05:08:20;42.17;;;21.60;;
20910;SDS011;10615;42.702;23.314;2024-01-11T05:09:21;43.70;;;22.05;;
20910;SDS011;10615;42.702;23.314;2024-01-11T05:10:22;42.50;;;21.75;;
20910;SDS011;10615;42.702;23.314;2024-01-11T05:11:23;45.78;;;22.60;;
20910;SDS011;10615;42.702;23.314;2024-01-11T05:12:24;44.08;;;22.42;;
20910;SDS011;10615;42.702;23.314;2024-01-11T05:13:25;48.35;;;21.65;;
20910;SDS011;10615;42.702;23.314;2024-01-11T05:14:26;43.65;;;21.63;;
20910;SDS011;10615;42.702;23.314;2024-01-11T05:15:26;47.10;;;22.67;;
20910;SDS011;10615;42.702;23.314;2024-01-11T05:16:27;49.28;;;22.52;;
20910;SDS011;10615;42.702;23.314;2024-01-11T05:17:28;54.28;;;23.58;;
20910;SDS011;10615;42.702;23.314;2024-01-11T05:18:29;48.95;;;24.15;;
20910;SDS011;10615;42.702;23.314;2024-01-11T05:19:30;46.00;;;23.20;;
20910;SDS011;10615;42.702;23.314;2024-01-11T05:20:31;50.33;;;25.73;;
20910;SDS011;10615;42.702;23.314;2024-01-11T05:21:31;51.28;;;25.25;;
20910;SDS011;10615;42.702;23.314;2024-01-11T05:22:32;48.45;;;25.98;;
20910;SDS011;10615;42.702;23.314;2024-01-11T05:23:33;59.60;;;27.30;;
20910;SDS011;10615;42.702;23.314;2024-01-11T05:24:34;53.13;;;26.17;;
20910;SDS011;10615;42.702;23.314;2024-01-11T05:25:34;55.10;;;26.83;;
20910;SDS011;10615;42.702;23.314;2024-01-11T05:26:35;51.13;;;26.10;;
20910;SDS011;10615;42.702;23.314;2024-01-11T05:27:36;48.28;;;26.42;;
20910;SDS011;10615;42.702;23.314;2024-01-11T05:28:37;52.35;;;25.70;;
20910;SDS011;10615;42.702;23.314;2024-01-11T05:29:38;48.55;;;24.48;;
20910;SDS011;10615;42.702;23.314;2024-01-11T05:30:39;44.45;;;22.95;;
20910;SDS011;10615;42.702;23.314;2024-01-11T05:31:40;45.65;;;23.05;;
20910;SDS011;10615;42.702;23.314;2024-01-11T05:32:41;46.78;;;21.83;;
20910;SDS011;10615;42.702;23.314;2024-01-11T05:33:41;43.95;;;20.83;;
20910;SDS011;10615;42.702;23.314;2024-01-11T05:34:43;41.50;;;21.83;;
20910;SDS011;10615;42.702;23.314;2024-01-11T05:35:43;45.78;;;20.48;;
20910;SDS011;10615;42.702;23.314;2024-01-11T05:36:44;40.50;;;20.08;;
20910;SDS011;10615;42.702;23.314;2024-01-11T05:37:45;37.00;;;20.50;;
20910;SDS011;10615;42.702;23.314;2024-01-11T05:38:46;35.85;;;19.42;;
20910;SDS011;10615;42.702;23.314;2024-01-11T05:39:46;39.50;;;23.13;;
20910;SDS011;10615;42.702;23.314;2024-01-11T05:40:47;37.22;;;19.95;;
20910;SDS011;10615;42.702;23.314;2024-01-11T05:41:48;35.90;;;19.98;;
20910;SDS011;10615;42.702;23.314;2024-01-11T05:42:49;43.25;;;23.35;;
20910;SDS011;10615;42.702;23.314;2024-01-11T05:43:49;42.15;;;21.90;;
20910;SDS011;10615;42.702;23.314;2024-01-11T05:44:51;44.28;;;24.27;;
20910;SDS011;10615;42.702;23.314;2024-01-11T05:45:52;50.42;;;26.15;;
20910;SDS011;10615;42.702;23.314;2024-01-11T05:46:53;44.03;;;24.83;;
20910;SDS011;10615;42.702;23.314;2024-01-11T05:47:54;47.00;;;25.45;;
20910;SDS011;10615;42.702;23.314;2024-01-11T05:48:54;35.30;;;18.83;;
20910;SDS011;10615;42.702;23.314;2024-01-11T05:49:55;33.03;;;18.45;;
20910;SDS011;10615;42.702;23.314;2024-01-11T05:50:58;33.22;;;18.45;;
20910;SDS011;10615;42.702;23.314;2024-01-11T05:52:00;35.13;;;17.45;;
20910;SDS011;10615;42.702;23.314;2024-01-11T05:53:00;33.03;;;16.45;;